Eships Agamid — ZDHS9 — position and weather

sailwx.info

Track history (hours):
 
Tides and Currents Weather Stations Pressure Air Temp Water Temp Dewpoint Dewpoint Depression Visibility Wind Speed Wind Dir Waves Ship Positions

Eships Agamid

Last reported at 2014-Aug-19 12:34 UTC. Time now 2014-Aug-21 00:23 UTC.
Position N 47°39' W 003°38'.

Length 128 m; draft 6 m.

Type: Tanker. MMSI: 236355000.

Date/timePositionNaut miles runAvg speedWind from/ knotsBaromVisibWave heightAir tempDewpointWater temp
2014-Aug-19 12:34N 47°39' W 003°38'1110.8
2014-Aug-19 11:33N 47°42' W 003°23'2 2.2
2014-Aug-19 10:33N 47°44' W 003°21'0 0.0
2014-Aug-19 09:34N 47°44' W 003°21'0 0.0
2014-Aug-19 08:34N 47°44' W 003°21'0 0.0
2014-Aug-19 07:34N 47°44' W 003°21'0 0.0
2014-Aug-19 06:33N 47°44' W 003°21'0 0.0
2014-Aug-19 05:33N 47°44' W 003°21'0 0.0
2014-Aug-19 04:33N 47°44' W 003°21'0 0.0
2014-Aug-19 03:33N 47°44' W 003°21'0 0.0
2014-Aug-19 02:34N 47°44' W 003°21'0 0.0
2014-Aug-19 01:33N 47°44' W 003°21'0 0.0
2014-Aug-19 00:33N 47°44' W 003°21'0 0.0
2014-Aug-18 23:34N 47°44' W 003°21'0 0.0
2014-Aug-18 22:34N 47°44' W 003°21'0 0.0
2014-Aug-18 21:34N 47°44' W 003°21'0 0.0
2014-Aug-18 20:33N 47°44' W 003°21'0 0.0
2014-Aug-18 19:33N 47°44' W 003°21'0 0.0
2014-Aug-18 18:33N 47°44' W 003°21'0 0.0
2014-Aug-18 17:33N 47°44' W 003°21'0 0.0
2014-Aug-18 16:33N 47°44' W 003°21'0 0.0
2014-Aug-18 15:34N 47°44' W 003°21'0 0.0
2014-Aug-18 14:33N 47°44' W 003°21'0 0.0
2014-Aug-18 13:33N 47°44' W 003°21'0 0.0
2014-Aug-18 12:34N 47°44' W 003°21'0 0.0
2014-Aug-18 11:33N 47°44' W 003°21'0 0.0
2014-Aug-18 10:34N 47°44' W 003°21'0 0.0
2014-Aug-18 09:34N 47°44' W 003°21'1 0.5
2014-Aug-18 08:34N 47°43' W 003°22'7 6.6
2014-Aug-18 07:33N 47°40' W 003°31'11 8.4
2014-Aug-18 06:16N 47°32' W 003°41'  
2014-Aug-12 13:24N 46°31' W 002°21'8 9.8
2014-Aug-12 12:33N 46°26' W 002°12'1110.6
2014-Aug-12 11:33N 46°19' W 001°60'1110.9
2014-Aug-12 10:33N 46°12' W 001°48'1110.8
2014-Aug-12 09:33N 46°08' W 001°33'6 0.2
2014-Aug-11 07:27N 46°08' W 001°42'1213.8
2014-Aug-11 06:33N 46°16' W 001°56'1414.1
2014-Aug-11 05:33N 46°25' W 002°11'93 2.3
2014-Aug-09 13:33N 47°40' W 003°31'  
Track history (hours):
 
Tides and Currents Weather Stations Pressure Air Temp Water Temp Dewpoint Dewpoint Depression Visibility Wind Speed Wind Dir Waves Ship Positions

Eships Agamid

Last reported at 2014-Aug-19 12:34 UTC. Time now 2014-Aug-21 00:23 UTC.
Position N 47°39' W 003°38'.

Length 128 m; draft 6 m.

Type: Tanker. MMSI: 236355000.

Date/timePositionNaut miles runAvg speedWind from/ knotsBaromVisibWave heightAir tempDewpointWater temp
2014-Aug-19 12:34N 47°39' W 003°38'1110.8
2014-Aug-19 11:33N 47°42' W 003°23'2 2.2
2014-Aug-19 10:33N 47°44' W 003°21'0 0.0
2014-Aug-19 09:34N 47°44' W 003°21'0 0.0
2014-Aug-19 08:34N 47°44' W 003°21'0 0.0
2014-Aug-19 07:34N 47°44' W 003°21'0 0.0
2014-Aug-19 06:33N 47°44' W 003°21'0 0.0
2014-Aug-19 05:33N 47°44' W 003°21'0 0.0
2014-Aug-19 04:33N 47°44' W 003°21'0 0.0
2014-Aug-19 03:33N 47°44' W 003°21'0 0.0
2014-Aug-19 02:34N 47°44' W 003°21'0 0.0
2014-Aug-19 01:33N 47°44' W 003°21'0 0.0
2014-Aug-19 00:33N 47°44' W 003°21'0 0.0
2014-Aug-18 23:34N 47°44' W 003°21'0 0.0
2014-Aug-18 22:34N 47°44' W 003°21'0 0.0
2014-Aug-18 21:34N 47°44' W 003°21'0 0.0
2014-Aug-18 20:33N 47°44' W 003°21'0 0.0
2014-Aug-18 19:33N 47°44' W 003°21'0 0.0
2014-Aug-18 18:33N 47°44' W 003°21'0 0.0
2014-Aug-18 17:33N 47°44' W 003°21'0 0.0
2014-Aug-18 16:33N 47°44' W 003°21'0 0.0
2014-Aug-18 15:34N 47°44' W 003°21'0 0.0
2014-Aug-18 14:33N 47°44' W 003°21'0 0.0
2014-Aug-18 13:33N 47°44' W 003°21'0 0.0
2014-Aug-18 12:34N 47°44' W 003°21'0 0.0
2014-Aug-18 11:33N 47°44' W 003°21'0 0.0
2014-Aug-18 10:34N 47°44' W 003°21'0 0.0
2014-Aug-18 09:34N 47°44' W 003°21'1 0.5
2014-Aug-18 08:34N 47°43' W 003°22'7 6.6
2014-Aug-18 07:33N 47°40' W 003°31'11 8.4
2014-Aug-18 06:16N 47°32' W 003°41'  
2014-Aug-12 13:24N 46°31' W 002°21'8 9.8
2014-Aug-12 12:33N 46°26' W 002°12'1110.6
2014-Aug-12 11:33N 46°19' W 001°60'1110.9
2014-Aug-12 10:33N 46°12' W 001°48'1110.8
2014-Aug-12 09:33N 46°08' W 001°33'6 0.2
2014-Aug-11 07:27N 46°08' W 001°42'1213.8
2014-Aug-11 06:33N 46°16' W 001°56'1414.1
2014-Aug-11 05:33N 46°25' W 002°11'93 2.3
2014-Aug-09 13:33N 47°40' W 003°31'  

Dump ship's entire track history